sensor_id;sensor_type;location;lat;lon;timestamp;temperature;humidity
19172;DHT22;9718;52.200;21.052;2022-07-23T00:01:30;21.60;99.90
19172;DHT22;9718;52.200;21.052;2022-07-23T00:03:58;21.50;99.90
19172;DHT22;9718;52.200;21.052;2022-07-23T00:06:25;21.40;99.90
19172;DHT22;9718;52.200;21.052;2022-07-23T00:08:52;21.30;99.90
19172;DHT22;9718;52.200;21.052;2022-07-23T00:11:19;21.20;99.90
19172;DHT22;9718;52.200;21.052;2022-07-23T00:13:46;21.10;99.90
19172;DHT22;9718;52.200;21.052;2022-07-23T00:16:13;21.00;99.90
19172;DHT22;9718;52.200;21.052;2022-07-23T00:18:40;21.00;99.90
19172;DHT22;9718;52.200;21.052;2022-07-23T00:21:07;21.00;99.90
19172;DHT22;9718;52.200;21.052;2022-07-23T00:23:34;20.90;99.90
19172;DHT22;9718;52.200;21.052;2022-07-23T00:26:01;20.80;99.90
19172;DHT22;9718;52.200;21.052;2022-07-23T00:28:28;20.80;99.90
19172;DHT22;9718;52.200;21.052;2022-07-23T00:30:55;20.80;99.90
19172;DHT22;9718;52.200;21.052;2022-07-23T00:33:22;20.70;99.90
19172;DHT22;9718;52.200;21.052;2022-07-23T00:35:50;20.70;99.90
19172;DHT22;9718;52.200;21.052;2022-07-23T00:38:17;20.70;99.90
19172;DHT22;9718;52.200;21.052;2022-07-23T00:40:44;20.70;99.90
19172;DHT22;9718;52.200;21.052;2022-07-23T00:43:11;20.70;99.90
19172;DHT22;9718;52.200;21.052;2022-07-23T00:45:38;20.70;99.90
19172;DHT22;9718;52.200;21.052;2022-07-23T00:48:05;20.70;99.90
19172;DHT22;9718;52.200;21.052;2022-07-23T00:50:32;20.60;99.90
19172;DHT22;9718;52.200;21.052;2022-07-23T00:53:00;20.50;99.90
19172;DHT22;9718;52.200;21.052;2022-07-23T00:55:27;20.50;99.90
19172;DHT22;9718;52.200;21.052;2022-07-23T00:57:55;20.40;99.90
19172;DHT22;9718;52.200;21.052;2022-07-23T01:00:22;20.30;99.90
19172;DHT22;9718;52.200;21.052;2022-07-23T01:02:49;20.30;99.90
19172;DHT22;9718;52.200;21.052;2022-07-23T01:05:17;20.20;99.90
19172;DHT22;9718;52.200;21.052;2022-07-23T01:07:52;20.20;99.90
19172;DHT22;9718;52.200;21.052;2022-07-23T01:10:23;20.10;99.90
19172;DHT22;9718;52.200;21.052;2022-07-23T01:13:04;20.00;99.90
19172;DHT22;9718;52.200;21.052;2022-07-23T01:15:33;19.90;99.90
19172;DHT22;9718;52.200;21.052;2022-07-23T01:18:01;19.80;99.90
19172;DHT22;9718;52.200;21.052;2022-07-23T01:20:28;19.80;99.90
19172;DHT22;9718;52.200;21.052;2022-07-23T01:22:56;19.80;99.90
19172;DHT22;9718;52.200;21.052;2022-07-23T01:25:23;19.80;99.90
19172;DHT22;9718;52.200;21.052;2022-07-23T01:27:52;19.90;99.90
19172;DHT22;9718;52.200;21.052;2022-07-23T01:30:20;19.80;99.90
19172;DHT22;9718;52.200;21.052;2022-07-23T01:32:47;19.80;99.90
19172;DHT22;9718;52.200;21.052;2022-07-23T01:35:14;19.80;99.90
19172;DHT22;9718;52.200;21.052;2022-07-23T01:37:41;19.70;99.90
19172;DHT22;9718;52.200;21.052;2022-07-23T01:40:09;19.70;99.90
19172;DHT22;9718;52.200;21.052;2022-07-23T01:42:36;19.60;99.90
19172;DHT22;9718;52.200;21.052;2022-07-23T01:45:05;19.60;99.90
19172;DHT22;9718;52.200;21.052;2022-07-23T01:47:32;19.50;99.90
19172;DHT22;9718;52.200;21.052;2022-07-23T01:49:59;19.50;99.90
19172;DHT22;9718;52.200;21.052;2022-07-23T01:52:26;19.50;99.90
19172;DHT22;9718;52.200;21.052;2022-07-23T01:54:53;19.50;99.90
19172;DHT22;9718;52.200;21.052;2022-07-23T01:57:20;19.40;99.90
19172;DHT22;9718;52.200;21.052;2022-07-23T01:59:47;19.50;99.90
19172;DHT22;9718;52.200;21.052;2022-07-23T02:02:14;19.50;99.90
19172;DHT22;9718;52.200;21.052;2022-07-23T02:04:41;19.50;99.90
19172;DHT22;9718;52.200;21.052;2022-07-23T02:07:08;19.40;99.90
19172;DHT22;9718;52.200;21.052;2022-07-23T02:09:35;19.40;99.90
19172;DHT22;9718;52.200;21.052;2022-07-23T02:12:03;19.40;99.90
19172;DHT22;9718;52.200;21.052;2022-07-23T02:14:30;19.40;99.90
19172;DHT22;9718;52.200;21.052;2022-07-23T02:16:58;19.40;99.90
19172;DHT22;9718;52.200;21.052;2022-07-23T02:19:25;19.30;99.90
19172;DHT22;9718;52.200;21.052;2022-07-23T02:21:52;19.30;99.90
19172;DHT22;9718;52.200;21.052;2022-07-23T02:24:21;19.30;99.90
19172;DHT22;9718;52.200;21.052;2022-07-23T02:26:48;19.20;99.90
19172;DHT22;9718;52.200;21.052;2022-07-23T02:29:15;19.20;99.90
19172;DHT22;9718;52.200;21.052;2022-07-23T02:31:42;19.20;99.90
19172;DHT22;9718;52.200;21.052;2022-07-23T02:34:10;19.30;99.90
19172;DHT22;9718;52.200;21.052;2022-07-23T02:36:38;19.30;99.90
19172;DHT22;9718;52.200;21.052;2022-07-23T02:39:07;19.40;99.90
19172;DHT22;9718;52.200;21.052;2022-07-23T02:41:33;19.40;99.90
19172;DHT22;9718;52.200;21.052;2022-07-23T02:44:01;19.40;99.90
19172;DHT22;9718;52.200;21.052;2022-07-23T02:46:28;19.40;99.90
19172;DHT22;9718;52.200;21.052;2022-07-23T02:48:55;19.30;99.90
19172;DHT22;9718;52.200;21.052;2022-07-23T02:51:22;19.30;99.90
19172;DHT22;9718;52.200;21.052;2022-07-23T02:53:49;19.30;99.90
19172;DHT22;9718;52.200;21.052;2022-07-23T02:56:16;19.40;99.90
19172;DHT22;9718;52.200;21.052;2022-07-23T02:58:43;19.40;99.90
19172;DHT22;9718;52.200;21.052;2022-07-23T03:01:10;19.50;99.90
19172;DHT22;9718;52.200;21.052;2022-07-23T03:03:37;19.60;99.90
19172;DHT22;9718;52.200;21.052;2022-07-23T03:06:04;19.70;99.90
19172;DHT22;9718;52.200;21.052;2022-07-23T03:08:31;19.90;99.90
19172;DHT22;9718;52.200;21.052;2022-07-23T03:10:58;20.00;99.90
19172;DHT22;9718;52.200;21.052;2022-07-23T03:13:25;20.20;99.90
19172;DHT22;9718;52.200;21.052;2022-07-23T03:15:52;20.40;99.90
19172;DHT22;9718;52.200;21.052;2022-07-23T03:18:19;20.60;99.90
19172;DHT22;9718;52.200;21.052;2022-07-23T03:20:46;20.80;99.90
19172;DHT22;9718;52.200;21.052;2022-07-23T03:23:14;20.90;99.90
19172;DHT22;9718;52.200;21.052;2022-07-23T03:25:42;20.90;99.90
19172;DHT22;9718;52.200;21.052;2022-07-23T03:28:09;21.00;99.90
19172;DHT22;9718;52.200;21.052;2022-07-23T03:30:36;21.10;99.90
19172;DHT22;9718;52.200;21.052;2022-07-23T03:33:03;21.10;99.90
19172;DHT22;9718;52.200;21.052;2022-07-23T03:35:30;21.20;99.90
19172;DHT22;9718;52.200;21.052;2022-07-23T03:37:57;21.20;99.90
19172;DHT22;9718;52.200;21.052;2022-07-23T03:40:25;21.30;99.90
19172;DHT22;9718;52.200;21.052;2022-07-23T03:42:52;21.40;99.90
19172;DHT22;9718;52.200;21.052;2022-07-23T03:45:19;21.50;99.90
19172;DHT22;9718;52.200;21.052;2022-07-23T03:47:46;21.50;99.90
19172;DHT22;9718;52.200;21.052;2022-07-23T03:50:13;21.60;99.90
19172;DHT22;9718;52.200;21.052;2022-07-23T03:52:40;21.70;99.90
19172;DHT22;9718;52.200;21.052;2022-07-23T03:55:07;21.80;99.90
19172;DHT22;9718;52.200;21.052;2022-07-23T03:57:35;21.80;99.90
19172;DHT22;9718;52.200;21.052;2022-07-23T04:00:05;21.80;99.90
19172;DHT22;9718;52.200;21.052;2022-07-23T04:02:33;21.90;99.90
19172;DHT22;9718;52.200;21.052;2022-07-23T04:05:00;21.90;99.90
19172;DHT22;9718;52.200;21.052;2022-07-23T04:07:27;22.00;99.90
19172;DHT22;9718;52.200;21.052;2022-07-23T04:09:54;22.20;99.90
19172;DHT22;9718;52.200;21.052;2022-07-23T04:12:22;22.30;99.90
19172;DHT22;9718;52.200;21.052;2022-07-23T04:14:49;22.40;99.90
19172;DHT22;9718;52.200;21.052;2022-07-23T04:17:16;22.40;99.90
19172;DHT22;9718;52.200;21.052;2022-07-23T04:19:43;22.50;99.90
19172;DHT22;9718;52.200;21.052;2022-07-23T04:22:11;22.50;99.90
19172;DHT22;9718;52.200;21.052;2022-07-23T04:24:38;22.70;99.90
19172;DHT22;9718;52.200;21.052;2022-07-23T04:27:05;22.70;99.90
19172;DHT22;9718;52.200;21.052;2022-07-23T04:29:32;22.70;99.90
19172;DHT22;9718;52.200;21.052;2022-07-23T04:31:59;22.80;99.90
19172;DHT22;9718;52.200;21.052;2022-07-23T04:34:27;22.90;99.90
19172;DHT22;9718;52.200;21.052;2022-07-23T04:36:54;23.00;99.90
19172;DHT22;9718;52.200;21.052;2022-07-23T04:39:21;23.00;99.90
19172;DHT22;9718;52.200;21.052;2022-07-23T04:41:48;23.10;99.90
19172;DHT22;9718;52.200;21.052;2022-07-23T04:44:15;23.10;99.90
19172;DHT22;9718;52.200;21.052;2022-07-23T04:46:42;23.20;99.90
19172;DHT22;9718;52.200;21.052;2022-07-23T04:49:09;23.40;99.90
19172;DHT22;9718;52.200;21.052;2022-07-23T04:51:36;23.50;99.90
19172;DHT22;9718;52.200;21.052;2022-07-23T04:54:03;23.50;99.90
19172;DHT22;9718;52.200;21.052;2022-07-23T04:56:31;23.60;99.90
19172;DHT22;9718;52.200;21.052;2022-07-23T04:58:58;23.70;99.90
19172;DHT22;9718;52.200;21.052;2022-07-23T05:01:25;23.80;99.90
19172;DHT22;9718;52.200;21.052;2022-07-23T05:03:52;23.80;99.90
19172;DHT22;9718;52.200;21.052;2022-07-23T05:06:19;24.00;99.90
19172;DHT22;9718;52.200;21.052;2022-07-23T05:08:46;23.90;99.90
19172;DHT22;9718;52.200;21.052;2022-07-23T05:11:14;24.00;99.90
19172;DHT22;9718;52.200;21.052;2022-07-23T05:13:40;24.30;99.90
19172;DHT22;9718;52.200;21.052;2022-07-23T05:16:07;24.40;99.90
19172;DHT22;9718;52.200;21.052;2022-07-23T05:18:35;24.30;99.90
19172;DHT22;9718;52.200;21.052;2022-07-23T05:21:02;24.40;99.90
19172;DHT22;9718;52.200;21.052;2022-07-23T05:23:28;24.70;99.90
19172;DHT22;9718;52.200;21.052;2022-07-23T05:25:56;24.70;99.90
19172;DHT22;9718;52.200;21.052;2022-07-23T05:28:22;24.70;99.90
19172;DHT22;9718;52.200;21.052;2022-07-23T05:30:50;24.90;99.90
19172;DHT22;9718;52.200;21.052;2022-07-23T05:33:20;25.00;99.90
19172;DHT22;9718;52.200;21.052;2022-07-23T05:35:47;25.10;99.90
19172;DHT22;9718;52.200;21.052;2022-07-23T05:38:14;24.90;99.90
19172;DHT22;9718;52.200;21.052;2022-07-23T05:40:41;25.10;99.90
19172;DHT22;9718;52.200;21.052;2022-07-23T05:43:08;25.20;99.90
19172;DHT22;9718;52.200;21.052;2022-07-23T05:45:35;25.30;99.90
19172;DHT22;9718;52.200;21.052;2022-07-23T05:48:03;25.40;99.90
19172;DHT22;9718;52.200;21.052;2022-07-23T05:50:30;25.60;99.90
19172;DHT22;9718;52.200;21.052;2022-07-23T05:52:57;25.70;99.90
19172;DHT22;9718;52.200;21.052;2022-07-23T05:55:24;25.90;99.90
19172;DHT22;9718;52.200;21.052;2022-07-23T05:57:51;26.20;99.90
19172;DHT22;9718;52.200;21.052;2022-07-23T06:00:18;26.30;99.90
19172;DHT22;9718;52.200;21.052;2022-07-23T06:02:45;26.40;99.90
19172;DHT22;9718;52.200;21.052;2022-07-23T06:05:19;26.60;99.90
19172;DHT22;9718;52.200;21.052;2022-07-23T06:07:46;26.90;99.90
19172;DHT22;9718;52.200;21.052;2022-07-23T06:10:14;26.90;99.90
19172;DHT22;9718;52.200;21.052;2022-07-23T06:12:41;27.00;99.90
19172;DHT22;9718;52.200;21.052;2022-07-23T06:15:09;26.90;99.90
19172;DHT22;9718;52.200;21.052;2022-07-23T06:17:38;27.10;99.90
19172;DHT22;9718;52.200;21.052;2022-07-23T06:20:09;26.80;99.90
19172;DHT22;9718;52.200;21.052;2022-07-23T06:22:36;26.70;99.90
19172;DHT22;9718;52.200;21.052;2022-07-23T06:25:04;27.00;99.90
19172;DHT22;9718;52.200;21.052;2022-07-23T06:27:38;27.30;99.90
19172;DHT22;9718;52.200;21.052;2022-07-23T06:30:05;27.40;99.90
19172;DHT22;9718;52.200;21.052;2022-07-23T06:32:34;27.60;99.90
19172;DHT22;9718;52.200;21.052;2022-07-23T06:35:02;27.60;99.90
19172;DHT22;9718;52.200;21.052;2022-07-23T06:37:29;27.80;99.90
19172;DHT22;9718;52.200;21.052;2022-07-23T06:39:56;27.60;99.90
19172;DHT22;9718;52.200;21.052;2022-07-23T06:42:23;27.70;99.90
19172;DHT22;9718;52.200;21.052;2022-07-23T06:44:50;27.80;99.90
19172;DHT22;9718;52.200;21.052;2022-07-23T06:47:17;27.90;99.90
19172;DHT22;9718;52.200;21.052;2022-07-23T06:49:44;28.20;99.90
19172;DHT22;9718;52.200;21.052;2022-07-23T06:52:11;28.40;99.90
19172;DHT22;9718;52.200;21.052;2022-07-23T06:54:38;28.50;99.90
19172;DHT22;9718;52.200;21.052;2022-07-23T06:57:05;28.70;99.90
19172;DHT22;9718;52.200;21.052;2022-07-23T06:59:32;28.40;99.90
19172;DHT22;9718;52.200;21.052;2022-07-23T07:01:59;28.30;99.90
19172;DHT22;9718;52.200;21.052;2022-07-23T07:04:27;28.60;99.90
19172;DHT22;9718;52.200;21.052;2022-07-23T07:06:54;28.90;99.90
19172;DHT22;9718;52.200;21.052;2022-07-23T07:09:21;29.30;99.90
19172;DHT22;9718;52.200;21.052;2022-07-23T07:11:48;29.10;99.90
19172;DHT22;9718;52.200;21.052;2022-07-23T07:14:15;29.00;99.90
19172;DHT22;9718;52.200;21.052;2022-07-23T07:16:42;29.30;99.90
19172;DHT22;9718;52.200;21.052;2022-07-23T07:19:09;29.40;99.90
19172;DHT22;9718;52.200;21.052;2022-07-23T07:21:36;29.90;99.90
19172;DHT22;9718;52.200;21.052;2022-07-23T07:24:03;29.90;99.90
19172;DHT22;9718;52.200;21.052;2022-07-23T07:26:30;30.10;99.90
19172;DHT22;9718;52.200;21.052;2022-07-23T07:28:57;30.20;99.90
19172;DHT22;9718;52.200;21.052;2022-07-23T07:31:25;30.10;99.90
19172;DHT22;9718;52.200;21.052;2022-07-23T07:33:53;29.80;99.90
19172;DHT22;9718;52.200;21.052;2022-07-23T07:36:21;30.00;99.90
19172;DHT22;9718;52.200;21.052;2022-07-23T07:38:48;30.40;99.90
19172;DHT22;9718;52.200;21.052;2022-07-23T07:41:15;30.80;99.90
19172;DHT22;9718;52.200;21.052;2022-07-23T07:43:42;31.00;99.90
19172;DHT22;9718;52.200;21.052;2022-07-23T07:46:09;31.10;99.90
19172;DHT22;9718;52.200;21.052;2022-07-23T07:48:37;30.70;99.90
19172;DHT22;9718;52.200;21.052;2022-07-23T07:51:04;30.70;99.90
19172;DHT22;9718;52.200;21.052;2022-07-23T07:53:32;30.60;99.90
19172;DHT22;9718;52.200;21.052;2022-07-23T07:55:59;30.90;99.90
19172;DHT22;9718;52.200;21.052;2022-07-23T07:58:26;31.20;99.90
19172;DHT22;9718;52.200;21.052;2022-07-23T08:00:54;31.40;99.90
19172;DHT22;9718;52.200;21.052;2022-07-23T08:03:21;31.50;99.90
19172;DHT22;9718;52.200;21.052;2022-07-23T08:05:48;31.40;99.90
19172;DHT22;9718;52.200;21.052;2022-07-23T08:08:15;31.20;99.90
19172;DHT22;9718;52.200;21.052;2022-07-23T08:10:43;31.20;99.90
19172;DHT22;9718;52.200;21.052;2022-07-23T08:13:13;31.10;99.90
19172;DHT22;9718;52.200;21.052;2022-07-23T08:15:41;31.10;99.90
19172;DHT22;9718;52.200;21.052;2022-07-23T08:18:09;31.30;99.90
19172;DHT22;9718;52.200;21.052;2022-07-23T08:20:36;31.40;99.90
19172;DHT22;9718;52.200;21.052;2022-07-23T08:23:05;31.50;99.90
19172;DHT22;9718;52.200;21.052;2022-07-23T08:25:35;31.30;99.90
19172;DHT22;9718;52.200;21.052;2022-07-23T08:28:05;31.40;99.90
19172;DHT22;9718;52.200;21.052;2022-07-23T08:30:33;31.80;99.90
19172;DHT22;9718;52.200;21.052;2022-07-23T08:33:15;31.50;99.90
19172;DHT22;9718;52.200;21.052;2022-07-23T08:36:01;31.30;99.90
19172;DHT22;9718;52.200;21.052;2022-07-23T08:38:30;31.10;99.90
19172;DHT22;9718;52.200;21.052;2022-07-23T08:40:58;30.80;99.90
19172;DHT22;9718;52.200;21.052;2022-07-23T08:43:27;31.00;99.90
19172;DHT22;9718;52.200;21.052;2022-07-23T08:45:56;31.10;99.90
19172;DHT22;9718;52.200;21.052;2022-07-23T08:48:31;31.10;99.90
19172;DHT22;9718;52.200;21.052;2022-07-23T08:51:01;31.40;99.90
19172;DHT22;9718;52.200;21.052;2022-07-23T08:53:30;31.50;99.90
19172;DHT22;9718;52.200;21.052;2022-07-23T08:55:59;31.50;99.90
19172;DHT22;9718;52.200;21.052;2022-07-23T08:58:30;31.30;99.90
19172;DHT22;9718;52.200;21.052;2022-07-23T09:00:57;31.00;99.90
19172;DHT22;9718;52.200;21.052;2022-07-23T09:03:27;31.20;99.90
19172;DHT22;9718;52.200;21.052;2022-07-23T09:05:55;31.30;99.90
19172;DHT22;9718;52.200;21.052;2022-07-23T09:11:03;31.20;99.90
19172;DHT22;9718;52.200;21.052;2022-07-23T09:13:37;31.30;99.90
19172;DHT22;9718;52.200;21.052;2022-07-23T09:16:16;31.50;99.90
19172;DHT22;9718;52.200;21.052;2022-07-23T09:21:36;31.60;99.90
19172;DHT22;9718;52.200;21.052;2022-07-23T09:24:09;31.60;99.90
19172;DHT22;9718;52.200;21.052;2022-07-23T09:29:14;30.80;99.90
19172;DHT22;9718;52.200;21.052;2022-07-23T09:31:53;30.50;99.90
19172;DHT22;9718;52.200;21.052;2022-07-23T09:34:25;30.80;99.90
19172;DHT22;9718;52.200;21.052;2022-07-23T09:36:56;30.80;99.90
19172;DHT22;9718;52.200;21.052;2022-07-23T09:39:31;30.80;99.90
19172;DHT22;9718;52.200;21.052;2022-07-23T09:42:13;31.10;99.90
19172;DHT22;9718;52.200;21.052;2022-07-23T09:44:45;31.30;99.90
19172;DHT22;9718;52.200;21.052;2022-07-23T09:47:13;31.10;99.90
19172;DHT22;9718;52.200;21.052;2022-07-23T09:50:09;31.50;99.90
19172;DHT22;9718;52.200;21.052;2022-07-23T09:52:49;31.60;99.90
19172;DHT22;9718;52.200;21.052;2022-07-23T09:55:17;31.70;99.90
19172;DHT22;9718;52.200;21.052;2022-07-23T09:57:45;31.80;99.90
19172;DHT22;9718;52.200;21.052;2022-07-23T10:00:16;32.10;99.90
19172;DHT22;9718;52.200;21.052;2022-07-23T10:02:46;32.30;99.90
19172;DHT22;9718;52.200;21.052;2022-07-23T10:05:15;32.60;99.90
19172;DHT22;9718;52.200;21.052;2022-07-23T10:07:42;32.70;99.90
19172;DHT22;9718;52.200;21.052;2022-07-23T10:10:17;32.60;99.90
19172;DHT22;9718;52.200;21.052;2022-07-23T10:12:45;32.60;99.90
19172;DHT22;9718;52.200;21.052;2022-07-23T10:15:18;32.70;99.90
19172;DHT22;9718;52.200;21.052;2022-07-23T10:17:45;32.10;99.90
19172;DHT22;9718;52.200;21.052;2022-07-23T10:20:12;32.30;99.90
19172;DHT22;9718;52.200;21.052;2022-07-23T10:22:47;32.40;99.90
19172;DHT22;9718;52.200;21.052;2022-07-23T10:25:42;32.70;99.90
19172;DHT22;9718;52.200;21.052;2022-07-23T10:31:09;32.90;99.90
19172;DHT22;9718;52.200;21.052;2022-07-23T10:39:31;33.00;99.90
19172;DHT22;9718;52.200;21.052;2022-07-23T10:42:15;32.80;99.90
19172;DHT22;9718;52.200;21.052;2022-07-23T10:44:47;32.60;99.90
19172;DHT22;9718;52.200;21.052;2022-07-23T10:47:25;32.80;99.90
19172;DHT22;9718;52.200;21.052;2022-07-23T10:50:28;33.00;99.90
19172;DHT22;9718;52.200;21.052;2022-07-23T10:53:13;33.20;99.90
19172;DHT22;9718;52.200;21.052;2022-07-23T10:55:48;33.00;99.90
19172;DHT22;9718;52.200;21.052;2022-07-23T10:58:45;33.20;99.90
19172;DHT22;9718;52.200;21.052;2022-07-23T11:01:37;33.20;99.90
19172;DHT22;9718;52.200;21.052;2022-07-23T11:04:05;33.40;99.90
19172;DHT22;9718;52.200;21.052;2022-07-23T11:15:10;33.80;99.90
19172;DHT22;9718;52.200;21.052;2022-07-23T11:17:57;33.20;99.90
19172;DHT22;9718;52.200;21.052;2022-07-23T11:20:26;33.50;99.90
19172;DHT22;9718;52.200;21.052;2022-07-23T11:22:58;33.50;99.90
19172;DHT22;9718;52.200;21.052;2022-07-23T11:27:55;33.90;99.90
19172;DHT22;9718;52.200;21.052;2022-07-23T11:30:39;33.90;99.90
19172;DHT22;9718;52.200;21.052;2022-07-23T11:35:39;34.10;99.90
19172;DHT22;9718;52.200;21.052;2022-07-23T11:38:18;33.80;99.90
19172;DHT22;9718;52.200;21.052;2022-07-23T11:40:51;33.40;99.90
19172;DHT22;9718;52.200;21.052;2022-07-23T11:43:19;32.80;99.90
19172;DHT22;9718;52.200;21.052;2022-07-23T11:45:50;32.40;99.90
19172;DHT22;9718;52.200;21.052;2022-07-23T11:48:23;32.40;99.90
19172;DHT22;9718;52.200;21.052;2022-07-23T11:50:52;32.40;99.90
19172;DHT22;9718;52.200;21.052;2022-07-23T11:53:27;32.70;99.90
19172;DHT22;9718;52.200;21.052;2022-07-23T11:56:11;33.20;99.90
19172;DHT22;9718;52.200;21.052;2022-07-23T11:58:39;33.50;99.90
19172;DHT22;9718;52.200;21.052;2022-07-23T12:01:06;33.00;99.90
19172;DHT22;9718;52.200;21.052;2022-07-23T12:03:49;33.20;99.90
19172;DHT22;9718;52.200;21.052;2022-07-23T12:06:17;33.20;99.90
19172;DHT22;9718;52.200;21.052;2022-07-23T12:08:45;33.10;99.90
19172;DHT22;9718;52.200;21.052;2022-07-23T12:11:12;33.00;99.90
19172;DHT22;9718;52.200;21.052;2022-07-23T12:13:39;33.10;99.90
19172;DHT22;9718;52.200;21.052;2022-07-23T12:16:08;33.40;99.90
19172;DHT22;9718;52.200;21.052;2022-07-23T12:18:35;33.70;99.90
19172;DHT22;9718;52.200;21.052;2022-07-23T12:21:04;34.10;99.90
19172;DHT22;9718;52.200;21.052;2022-07-23T12:23:32;34.30;99.90
19172;DHT22;9718;52.200;21.052;2022-07-23T12:26:01;33.80;99.90
19172;DHT22;9718;52.200;21.052;2022-07-23T12:30:57;32.90;99.90
19172;DHT22;9718;52.200;21.052;2022-07-23T12:33:28;32.40;99.90
19172;DHT22;9718;52.200;21.052;2022-07-23T12:35:58;32.10;99.90
19172;DHT22;9718;52.200;21.052;2022-07-23T12:38:27;32.30;99.90
19172;DHT22;9718;52.200;21.052;2022-07-23T12:40:56;32.80;99.90
19172;DHT22;9718;52.200;21.052;2022-07-23T12:43:32;33.30;99.90
19172;DHT22;9718;52.200;21.052;2022-07-23T12:48:39;33.40;99.90
19172;DHT22;9718;52.200;21.052;2022-07-23T12:51:12;33.60;99.90
19172;DHT22;9718;52.200;21.052;2022-07-23T12:53:58;33.90;99.90
19172;DHT22;9718;52.200;21.052;2022-07-23T12:56:28;34.00;99.90
19172;DHT22;9718;52.200;21.052;2022-07-23T12:58:57;33.60;99.90
19172;DHT22;9718;52.200;21.052;2022-07-23T13:01:30;33.30;99.90
19172;DHT22;9718;52.200;21.052;2022-07-23T13:04:03;33.30;99.90
19172;DHT22;9718;52.200;21.052;2022-07-23T13:06:45;33.50;99.90
19172;DHT22;9718;52.200;21.052;2022-07-23T13:09:15;33.40;99.90
19172;DHT22;9718;52.200;21.052;2022-07-23T13:11:43;33.20;99.90
19172;DHT22;9718;52.200;21.052;2022-07-23T13:14:14;33.20;99.90
19172;DHT22;9718;52.200;21.052;2022-07-23T13:16:42;33.20;99.90
19172;DHT22;9718;52.200;21.052;2022-07-23T13:19:09;33.40;99.90
19172;DHT22;9718;52.200;21.052;2022-07-23T13:21:57;33.60;99.90
19172;DHT22;9718;52.200;21.052;2022-07-23T13:24:24;33.90;99.90
19172;DHT22;9718;52.200;21.052;2022-07-23T13:26:53;33.90;99.90
19172;DHT22;9718;52.200;21.052;2022-07-23T13:29:20;33.70;99.90
19172;DHT22;9718;52.200;21.052;2022-07-23T13:31:47;33.70;99.90
19172;DHT22;9718;52.200;21.052;2022-07-23T13:34:16;33.60;99.90
19172;DHT22;9718;52.200;21.052;2022-07-23T13:36:44;33.70;99.90
19172;DHT22;9718;52.200;21.052;2022-07-23T13:39:11;33.90;99.90
19172;DHT22;9718;52.200;21.052;2022-07-23T13:41:38;33.80;99.90
19172;DHT22;9718;52.200;21.052;2022-07-23T13:44:06;33.60;99.90
19172;DHT22;9718;52.200;21.052;2022-07-23T13:46:34;33.30;99.90
19172;DHT22;9718;52.200;21.052;2022-07-23T13:49:01;33.30;99.90
19172;DHT22;9718;52.200;21.052;2022-07-23T13:51:29;33.50;99.90
19172;DHT22;9718;52.200;21.052;2022-07-23T13:53:56;33.60;99.90
19172;DHT22;9718;52.200;21.052;2022-07-23T13:56:26;33.70;99.90
19172;DHT22;9718;52.200;21.052;2022-07-23T13:58:53;33.60;99.80
19172;DHT22;9718;52.200;21.052;2022-07-23T14:01:20;33.40;99.90
19172;DHT22;9718;52.200;21.052;2022-07-23T14:03:47;33.20;99.90
19172;DHT22;9718;52.200;21.052;2022-07-23T14:06:15;32.80;99.90
19172;DHT22;9718;52.200;21.052;2022-07-23T14:08:43;32.50;99.90
19172;DHT22;9718;52.200;21.052;2022-07-23T14:11:12;32.50;99.90
19172;DHT22;9718;52.200;21.052;2022-07-23T14:13:39;32.50;99.90
19172;DHT22;9718;52.200;21.052;2022-07-23T14:16:07;32.50;99.90
19172;DHT22;9718;52.200;21.052;2022-07-23T14:18:34;32.20;99.90
19172;DHT22;9718;52.200;21.052;2022-07-23T14:21:02;31.90;99.90
19172;DHT22;9718;52.200;21.052;2022-07-23T14:23:29;31.70;99.90
19172;DHT22;9718;52.200;21.052;2022-07-23T14:25:57;31.50;99.90
19172;DHT22;9718;52.200;21.052;2022-07-23T14:28:24;31.60;99.90
19172;DHT22;9718;52.200;21.052;2022-07-23T14:30:51;31.70;99.90
19172;DHT22;9718;52.200;21.052;2022-07-23T14:33:18;31.60;99.90
19172;DHT22;9718;52.200;21.052;2022-07-23T14:35:47;31.50;99.90
19172;DHT22;9718;52.200;21.052;2022-07-23T14:38:14;31.40;99.90
19172;DHT22;9718;52.200;21.052;2022-07-23T14:40:42;31.30;99.90
19172;DHT22;9718;52.200;21.052;2022-07-23T14:43:11;31.30;99.90
19172;DHT22;9718;52.200;21.052;2022-07-23T14:45:38;31.20;99.90
19172;DHT22;9718;52.200;21.052;2022-07-23T14:48:06;28.90;99.90
19172;DHT22;9718;52.200;21.052;2022-07-23T14:50:34;27.30;99.90
19172;DHT22;9718;52.200;21.052;2022-07-23T14:53:01;26.50;99.90
19172;DHT22;9718;52.200;21.052;2022-07-23T14:55:31;25.70;99.90
19172;DHT22;9718;52.200;21.052;2022-07-23T14:57:59;25.00;99.90
19172;DHT22;9718;52.200;21.052;2022-07-23T15:00:27;24.20;99.90
19172;DHT22;9718;52.200;21.052;2022-07-23T15:02:55;23.90;99.90
19172;DHT22;9718;52.200;21.052;2022-07-23T15:05:24;23.20;99.90
19172;DHT22;9718;52.200;21.052;2022-07-23T15:07:52;22.50;99.90
19172;DHT22;9718;52.200;21.052;2022-07-23T15:10:19;21.80;99.90
19172;DHT22;9718;52.200;21.052;2022-07-23T15:12:49;21.50;99.90
19172;DHT22;9718;52.200;21.052;2022-07-23T15:15:16;21.30;99.90
19172;DHT22;9718;52.200;21.052;2022-07-23T15:17:44;21.20;99.90
19172;DHT22;9718;52.200;21.052;2022-07-23T15:20:11;21.10;99.90
19172;DHT22;9718;52.200;21.052;2022-07-23T15:22:43;21.10;99.90
19172;DHT22;9718;52.200;21.052;2022-07-23T15:25:11;21.10;99.90
19172;DHT22;9718;52.200;21.052;2022-07-23T15:27:39;21.10;99.90
19172;DHT22;9718;52.200;21.052;2022-07-23T15:30:08;21.00;99.90
19172;DHT22;9718;52.200;21.052;2022-07-23T15:32:38;21.00;99.90
19172;DHT22;9718;52.200;21.052;2022-07-23T15:35:06;20.90;99.90
19172;DHT22;9718;52.200;21.052;2022-07-23T15:37:35;20.90;99.90
19172;DHT22;9718;52.200;21.052;2022-07-23T15:40:02;20.90;99.90
19172;DHT22;9718;52.200;21.052;2022-07-23T15:42:39;20.90;99.90
19172;DHT22;9718;52.200;21.052;2022-07-23T15:45:07;20.80;99.90
19172;DHT22;9718;52.200;21.052;2022-07-23T15:47:36;20.60;99.90
19172;DHT22;9718;52.200;21.052;2022-07-23T15:50:04;20.70;99.90
19172;DHT22;9718;52.200;21.052;2022-07-23T15:52:33;20.60;99.90
19172;DHT22;9718;52.200;21.052;2022-07-23T15:55:00;20.60;99.90
19172;DHT22;9718;52.200;21.052;2022-07-23T15:57:27;20.60;99.90
19172;DHT22;9718;52.200;21.052;2022-07-23T15:59:54;20.60;99.90
19172;DHT22;9718;52.200;21.052;2022-07-23T16:02:23;20.50;99.90
19172;DHT22;9718;52.200;21.052;2022-07-23T16:04:53;20.40;99.90
19172;DHT22;9718;52.200;21.052;2022-07-23T16:07:21;20.20;99.90
19172;DHT22;9718;52.200;21.052;2022-07-23T16:09:48;20.10;99.90
19172;DHT22;9718;52.200;21.052;2022-07-23T16:12:15;20.10;99.90
19172;DHT22;9718;52.200;21.052;2022-07-23T16:14:42;19.90;99.90
19172;DHT22;9718;52.200;21.052;2022-07-23T16:17:09;19.90;99.90